createdAt,value
2018-08-06T00:00:45.735Z,10.53
2018-08-06T00:06:40.712Z,9.4
2018-08-06T00:12:35.769Z,12.44
2018-08-06T00:18:30.727Z,10.06
2018-08-06T00:24:25.734Z,9.87
2018-08-06T00:30:20.786Z,10.44
2018-08-06T00:36:15.746Z,9.4
2018-08-06T00:42:10.757Z,9.3
2018-08-06T00:48:05.793Z,9.17
2018-08-06T00:54:00.760Z,9.93
2018-08-06T00:59:55.768Z,9.34
2018-08-06T01:05:50.785Z,10.12
2018-08-06T01:11:45.774Z,10.08
2018-08-06T01:17:40.786Z,9.02
2018-08-06T01:23:35.777Z,10.55
2018-08-06T01:29:30.817Z,9.17
2018-08-06T01:35:25.818Z,9.4
2018-08-06T01:41:20.801Z,9.99
2018-08-06T01:47:15.845Z,11.32
2018-08-06T01:53:10.828Z,9.88
2018-08-06T01:59:05.833Z,9.81
2018-08-06T02:05:00.821Z,9.74
2018-08-06T02:10:55.843Z,9.28
2018-08-06T02:16:50.864Z,10.6
2018-08-06T02:22:45.853Z,9.13
2018-08-06T02:28:40.878Z,9.62
2018-08-06T02:34:35.856Z,9.51
2018-08-06T02:40:30.889Z,10.22
2018-08-06T02:46:25.864Z,9.05
2018-08-06T02:52:20.860Z,9.68
2018-08-06T02:58:15.885Z,9.33
2018-08-06T03:04:10.892Z,8
2018-08-06T03:10:05.970Z,9.97
2018-08-06T03:16:00.899Z,10.97
2018-08-06T03:21:55.926Z,10.03
2018-08-06T03:27:50.912Z,8.6
2018-08-06T03:33:45.930Z,7.92
2018-08-06T03:39:40.936Z,12.05
2018-08-06T03:45:35.918Z,9.15
2018-08-06T03:51:30.955Z,8.51
2018-08-06T03:57:25.989Z,7.96
2018-08-06T04:03:20.959Z,8.54
2018-08-06T04:09:15.970Z,8.65
2018-08-06T04:15:10.951Z,7.86
2018-08-06T04:21:06.033Z,7.57
2018-08-06T04:27:00.971Z,7.3
2018-08-06T04:32:56.105Z,7.67
2018-08-06T04:38:50.998Z,7.74
2018-08-06T04:44:45.993Z,8.55
2018-08-06T04:50:40.993Z,7.32
2018-08-06T04:56:35.984Z,8.14
2018-08-06T05:02:31.060Z,7.13
2018-08-06T05:08:26.029Z,9.17
2018-08-06T05:14:21.015Z,7.81
2018-08-06T05:20:16.116Z,8.86
2018-08-06T05:26:11.040Z,8.79
2018-08-06T05:32:06.051Z,10.17
2018-08-06T05:38:01.028Z,8.32
2018-08-06T05:43:56.058Z,7.63
2018-08-06T05:49:51.051Z,8.45
2018-08-06T05:55:46.079Z,7.17
2018-08-06T06:01:41.066Z,7.73
2018-08-06T06:07:36.076Z,8.81
2018-08-06T06:13:31.090Z,8.48
2018-08-06T06:19:26.086Z,8.4
2018-08-06T06:25:21.120Z,8.38
2018-08-06T06:31:16.075Z,8.59
2018-08-06T06:37:11.092Z,8.19
2018-08-06T06:43:06.127Z,11.61
2018-08-06T06:49:01.191Z,9.92
2018-08-06T06:54:56.131Z,11.12
2018-08-06T07:00:51.126Z,10.45
2018-08-06T07:06:46.138Z,19.24
2018-08-06T07:12:41.142Z,19.23
2018-08-06T07:18:36.208Z,13.51
2018-08-06T07:24:31.142Z,35.31
2018-08-06T07:30:26.167Z,15.08
2018-08-06T07:36:21.201Z,16.42
2018-08-06T07:42:16.179Z,13.99
2018-08-06T07:48:11.174Z,14.28
2018-08-06T07:54:06.187Z,22.19
2018-08-06T08:00:01.208Z,15.12
2018-08-06T08:05:56.243Z,12.19
2018-08-06T08:11:51.250Z,16.26
2018-08-06T08:17:46.217Z,13.52
2018-08-06T08:23:41.205Z,16.63
2018-08-06T08:29:36.221Z,13.55
2018-08-06T08:35:31.226Z,14.14
2018-08-06T08:41:26.210Z,12.01
2018-08-06T08:47:21.222Z,13.31
2018-08-06T08:53:16.253Z,13.01
2018-08-06T08:59:11.291Z,13.03
2018-08-06T09:05:06.245Z,13.9
2018-08-06T09:11:01.249Z,12.47
2018-08-06T09:16:56.267Z,11.99
2018-08-06T09:22:51.249Z,15.68
2018-08-06T09:28:46.292Z,11.17
2018-08-06T09:34:41.316Z,12.22
2018-08-06T09:40:36.345Z,11.75
2018-08-06T09:49:02.390Z,11.11
2018-08-06T09:54:57.422Z,10.78
2018-08-06T10:00:52.390Z,11.5
2018-08-06T10:06:47.653Z,8.65
2018-08-06T10:12:42.399Z,9.13
2018-08-06T10:18:37.431Z,8.1
2018-08-06T10:24:32.498Z,8.3
2018-08-06T10:30:27.548Z,7.32
2018-08-06T10:36:22.459Z,7.62
2018-08-06T10:42:17.454Z,7.93
2018-08-06T10:48:12.507Z,27.24
2018-08-06T10:54:07.441Z,7.78
2018-08-06T11:00:02.516Z,6.98
2018-08-06T11:05:57.447Z,9.53
2018-08-06T11:11:52.461Z,8.07
2018-08-06T11:17:47.531Z,8.43
2018-08-06T11:23:42.465Z,7.06
2018-08-06T11:29:37.504Z,17.48
2018-08-06T11:35:32.559Z,8.4
2018-08-06T11:41:27.537Z,7.89
2018-08-06T11:47:22.500Z,7.41
2018-08-06T11:53:17.531Z,6.08
2018-08-06T11:59:12.565Z,6.29
2018-08-06T12:05:07.513Z,6.4
2018-08-06T12:11:02.529Z,6.66
2018-08-06T12:16:57.516Z,5.57
2018-08-06T12:22:52.565Z,5.28
2018-08-06T12:28:47.536Z,5.25
2018-08-06T12:34:42.555Z,5.52
2018-08-06T12:40:37.556Z,4.97
2018-08-06T12:46:32.554Z,5.49
2018-08-06T12:52:27.575Z,5.83
2018-08-06T12:58:22.596Z,4.82
2018-08-06T13:04:17.598Z,5.21
2018-08-06T13:10:12.605Z,6.19
2018-08-06T13:16:07.617Z,5.63
2018-08-06T13:22:02.609Z,5.31
2018-08-06T13:27:57.631Z,5.38
2018-08-06T13:33:52.587Z,4.93
2018-08-06T13:39:47.603Z,4.6
2018-08-06T13:45:42.639Z,5.91
2018-08-06T13:51:37.671Z,4.67
2018-08-06T13:57:32.678Z,4.41
2018-08-06T14:03:27.666Z,4.66
2018-08-06T14:09:22.673Z,4.88
2018-08-06T14:15:17.641Z,4.36
2018-08-06T14:21:12.719Z,4.44
2018-08-06T14:27:07.678Z,4.13
2018-08-06T14:33:02.663Z,4.3
2018-08-06T14:38:57.731Z,3.98
2018-08-06T14:44:52.738Z,3.42
2018-08-06T14:50:47.698Z,3.74
2018-08-06T14:56:42.717Z,3.85
2018-08-06T15:02:37.722Z,4.81
2018-08-06T15:08:32.830Z,4.13
2018-08-06T15:20:22.734Z,4.61
2018-08-06T15:26:17.744Z,4.95
2018-08-06T15:32:12.729Z,4.38
2018-08-06T15:38:07.772Z,4.7
2018-08-06T15:44:02.732Z,5.68
2018-08-06T15:49:57.761Z,5.23
2018-08-06T15:55:52.785Z,5.13
2018-08-06T16:01:47.836Z,5.21
2018-08-06T16:07:42.797Z,7.28
2018-08-06T16:13:37.763Z,5.63
2018-08-06T16:19:32.770Z,5.75
2018-08-06T16:25:27.795Z,5.46
2018-08-06T16:31:22.806Z,5.46
2018-08-06T16:37:17.779Z,5.82
2018-08-06T16:43:12.797Z,5.45
2018-08-06T16:49:07.821Z,5.71
2018-08-06T16:55:02.829Z,6.49
2018-08-06T17:00:57.880Z,5.6
2018-08-06T17:06:53.045Z,6.12
2018-08-06T17:12:47.844Z,5.65
2018-08-06T17:18:42.827Z,5.01
2018-08-06T17:24:37.867Z,5.12
2018-08-06T17:30:32.843Z,4.6
2018-08-06T17:36:27.931Z,4.87
2018-08-06T17:42:22.885Z,6.46
2018-08-06T17:48:17.932Z,7.2
2018-08-06T17:54:12.863Z,6.42
2018-08-06T18:00:07.872Z,6.16
2018-08-06T18:06:02.889Z,8.04
2018-08-06T18:11:57.895Z,7.2
2018-08-06T18:17:52.898Z,6.13
2018-08-06T18:23:47.910Z,8.78
2018-08-06T18:29:42.914Z,6.12
2018-08-06T18:35:37.962Z,6.44
2018-08-06T18:41:32.915Z,14.78
2018-08-06T18:47:27.944Z,7.52
2018-08-06T18:53:22.946Z,7.67
2018-08-06T18:59:17.965Z,6.4
2018-08-06T19:05:12.978Z,6.86
2018-08-06T19:11:07.998Z,6.57
2018-08-06T19:17:02.952Z,7.18
2018-08-06T19:22:57.972Z,6
2018-08-06T19:28:52.950Z,6.69
2018-08-06T19:34:47.992Z,6.22
2018-08-06T19:40:43.030Z,8.37
2018-08-06T19:46:37.985Z,6.73
2018-08-06T19:52:32.979Z,7.8
2018-08-06T19:58:28.011Z,8.63
2018-08-06T20:04:22.989Z,6.92
2018-08-06T20:10:18.058Z,9.05
2018-08-06T20:16:13.127Z,7.5
2018-08-06T20:22:08.051Z,7.31
2018-08-06T20:28:03.062Z,7.73
2018-08-06T20:33:58.099Z,6.82
2018-08-06T20:39:53.085Z,7.97
2018-08-06T20:45:48.073Z,7.23
2018-08-06T20:51:43.041Z,6.5
2018-08-06T20:57:38.092Z,9.8
2018-08-06T21:03:33.105Z,6.72
2018-08-06T21:09:28.065Z,7.52
2018-08-06T21:15:23.082Z,7.93
2018-08-06T21:21:18.064Z,7.17
2018-08-06T21:27:13.089Z,6.57
2018-08-06T21:33:08.095Z,7.82
2018-08-06T21:39:03.212Z,6.53
2018-08-06T21:44:58.209Z,8.12
2018-08-06T21:50:53.132Z,8.29
2018-08-06T21:56:48.181Z,7.19
2018-08-06T22:02:43.113Z,7.37
2018-08-06T22:08:38.129Z,7.82
2018-08-06T22:14:33.185Z,7.75
2018-08-06T22:20:28.156Z,6.67
2018-08-06T22:26:23.143Z,9.16
2018-08-06T22:32:18.150Z,7.93
2018-08-06T22:38:13.177Z,8.2
2018-08-06T22:44:08.177Z,7.7
2018-08-06T22:50:03.197Z,9.13
2018-08-06T22:55:58.198Z,7.67
2018-08-06T23:01:53.188Z,7.58
2018-08-06T23:07:48.184Z,7.72
2018-08-06T23:13:43.227Z,7.99
2018-08-06T23:19:38.203Z,7.88
2018-08-06T23:25:33.200Z,7.7
2018-08-06T23:31:28.260Z,8.56
2018-08-06T23:37:23.248Z,8.43
2018-08-06T23:43:18.222Z,7.68
2018-08-06T23:49:13.239Z,8.41
2018-08-06T23:55:08.299Z,8.72
